sensor_id;sensor_type;location;lat;lon;timestamp;pressure;altitude;pressure_sealevel;temperature;humidity
13314;BME280;6725;48.112;11.604;2023-02-12T00:00:48;97142.91;;;4.98;100.00
13314;BME280;6725;48.112;11.604;2023-02-12T00:03:13;97143.72;;;4.98;100.00
13314;BME280;6725;48.112;11.604;2023-02-12T00:05:39;97135.59;;;4.98;100.00
13314;BME280;6725;48.112;11.604;2023-02-12T00:08:08;97128.56;;;5.06;100.00
13314;BME280;6725;48.112;11.604;2023-02-12T00:10:39;97138.56;;;5.14;100.00
13314;BME280;6725;48.112;11.604;2023-02-12T00:13:05;97127.41;;;5.15;100.00
13314;BME280;6725;48.112;11.604;2023-02-12T00:15:30;97130.88;;;5.16;100.00
13314;BME280;6725;48.112;11.604;2023-02-12T00:17:56;97127.84;;;5.17;100.00
13314;BME280;6725;48.112;11.604;2023-02-12T00:20:21;97121.66;;;5.17;100.00
13314;BME280;6725;48.112;11.604;2023-02-12T00:22:46;97111.00;;;5.12;100.00
13314;BME280;6725;48.112;11.604;2023-02-12T00:25:12;97111.00;;;5.12;100.00
13314;BME280;6725;48.112;11.604;2023-02-12T00:27:38;97116.91;;;5.14;100.00
13314;BME280;6725;48.112;11.604;2023-02-12T00:30:03;97113.56;;;5.17;100.00
13314;BME280;6725;48.112;11.604;2023-02-12T00:32:29;97118.63;;;5.18;100.00
13314;BME280;6725;48.112;11.604;2023-02-12T00:34:54;97115.13;;;5.18;100.00
13314;BME280;6725;48.112;11.604;2023-02-12T00:37:19;97132.31;;;5.22;100.00
13314;BME280;6725;48.112;11.604;2023-02-12T00:39:45;97124.19;;;5.22;100.00
13314;BME280;6725;48.112;11.604;2023-02-12T00:42:10;97117.63;;;5.23;100.00
13314;BME280;6725;48.112;11.604;2023-02-12T00:44:36;97112.72;;;5.25;100.00
13314;BME280;6725;48.112;11.604;2023-02-12T00:47:02;97112.72;;;5.25;100.00
13314;BME280;6725;48.112;11.604;2023-02-12T00:49:28;97122.41;;;5.26;100.00
13314;BME280;6725;48.112;11.604;2023-02-12T00:51:59;97110.00;;;5.25;100.00
13314;BME280;6725;48.112;11.604;2023-02-12T00:54:24;97113.16;;;5.27;100.00
13314;BME280;6725;48.112;11.604;2023-02-12T00:56:49;97118.56;;;5.27;100.00
13314;BME280;6725;48.112;11.604;2023-02-12T00:59:15;97121.59;;;5.25;100.00
13314;BME280;6725;48.112;11.604;2023-02-12T01:01:40;97123.22;;;5.26;100.00
13314;BME280;6725;48.112;11.604;2023-02-12T01:04:05;97120.84;;;5.25;100.00
13314;BME280;6725;48.112;11.604;2023-02-12T01:06:31;97139.78;;;5.25;100.00
13314;BME280;6725;48.112;11.604;2023-02-12T01:08:56;97134.81;;;5.27;100.00
13314;BME280;6725;48.112;11.604;2023-02-12T01:11:22;97120.84;;;5.25;100.00
13314;BME280;6725;48.112;11.604;2023-02-12T01:13:47;97124.31;;;5.25;100.00
13314;BME280;6725;48.112;11.604;2023-02-12T01:16:21;97110.66;;;5.22;100.00
13314;BME280;6725;48.112;11.604;2023-02-12T01:18:47;97107.47;;;5.20;100.00
13314;BME280;6725;48.112;11.604;2023-02-12T01:21:18;97108.25;;;5.20;100.00
13314;BME280;6725;48.112;11.604;2023-02-12T01:23:44;97106.69;;;5.19;100.00
13314;BME280;6725;48.112;11.604;2023-02-12T01:26:10;97112.41;;;5.18;100.00
13314;BME280;6725;48.112;11.604;2023-02-12T01:28:40;97115.13;;;5.18;100.00
13314;BME280;6725;48.112;11.604;2023-02-12T01:31:15;97114.00;;;5.19;100.00
13314;BME280;6725;48.112;11.604;2023-02-12T01:33:41;97129.13;;;5.20;100.00
13314;BME280;6725;48.112;11.604;2023-02-12T01:36:08;97119.91;;;5.21;100.00
13314;BME280;6725;48.112;11.604;2023-02-12T01:38:33;97126.91;;;5.22;100.00
13314;BME280;6725;48.112;11.604;2023-02-12T01:41:07;97126.25;;;5.25;100.00
13314;BME280;6725;48.112;11.604;2023-02-12T01:43:34;97121.59;;;5.25;100.00
13314;BME280;6725;48.112;11.604;2023-02-12T01:46:01;97115.41;;;5.25;100.00
13314;BME280;6725;48.112;11.604;2023-02-12T01:48:29;97125.44;;;5.24;100.00
13314;BME280;6725;48.112;11.604;2023-02-12T01:50:57;97125.31;;;5.21;100.00
13314;BME280;6725;48.112;11.604;2023-02-12T01:53:24;97129.78;;;5.17;100.00
13314;BME280;6725;48.112;11.604;2023-02-12T01:55:55;97126.59;;;5.15;100.00
13314;BME280;6725;48.112;11.604;2023-02-12T01:58:24;97127.25;;;5.12;100.00
13314;BME280;6725;48.112;11.604;2023-02-12T02:00:51;97126.31;;;5.08;100.00
13314;BME280;6725;48.112;11.604;2023-02-12T02:03:16;97125.38;;;5.04;100.00
13314;BME280;6725;48.112;11.604;2023-02-12T02:05:53;97120.59;;;5.01;100.00
13314;BME280;6725;48.112;11.604;2023-02-12T02:08:20;97123.97;;;4.98;100.00
13314;BME280;6725;48.112;11.604;2023-02-12T02:10:46;97111.75;;;4.92;100.00
13314;BME280;6725;48.112;11.604;2023-02-12T02:13:12;97119.38;;;4.90;100.00
13314;BME280;6725;48.112;11.604;2023-02-12T02:15:59;97109.88;;;4.84;100.00
13314;BME280;6725;48.112;11.604;2023-02-12T02:18:55;97118.31;;;4.82;100.00
13314;BME280;6725;48.112;11.604;2023-02-12T02:21:30;97125.13;;;4.80;100.00
13314;BME280;6725;48.112;11.604;2023-02-12T02:32:26;97119.16;;;4.66;100.00
13314;BME280;6725;48.112;11.604;2023-02-12T02:35:10;97121.53;;;4.67;100.00
13314;BME280;6725;48.112;11.604;2023-02-12T02:37:47;97106.72;;;4.65;100.00
13314;BME280;6725;48.112;11.604;2023-02-12T02:40:19;97106.72;;;4.65;100.00
13314;BME280;6725;48.112;11.604;2023-02-12T02:43:08;97115.97;;;4.64;100.00
13314;BME280;6725;48.112;11.604;2023-02-12T02:45:45;97104.69;;;4.62;100.00
13314;BME280;6725;48.112;11.604;2023-02-12T02:48:26;97112.00;;;4.61;100.00
13314;BME280;6725;48.112;11.604;2023-02-12T02:51:04;97095.78;;;4.61;100.00
13314;BME280;6725;48.112;11.604;2023-02-12T02:53:34;97106.59;;;4.61;100.00
13314;BME280;6725;48.112;11.604;2023-02-12T02:56:06;97100.25;;;4.57;100.00
13314;BME280;6725;48.112;11.604;2023-02-12T02:58:42;97098.31;;;4.58;100.00
13314;BME280;6725;48.112;11.604;2023-02-12T03:01:16;97097.22;;;4.59;100.00
13314;BME280;6725;48.112;11.604;2023-02-12T03:03:48;97092.91;;;4.58;100.00
13314;BME280;6725;48.112;11.604;2023-02-12T03:06:26;97102.63;;;4.59;100.00
13314;BME280;6725;48.112;11.604;2023-02-12T03:08:57;97104.53;;;4.58;100.00
13314;BME280;6725;48.112;11.604;2023-02-12T03:11:28;97112.31;;;4.60;100.00
13314;BME280;6725;48.112;11.604;2023-02-12T03:14:02;97123.63;;;4.62;100.00
13314;BME280;6725;48.112;11.604;2023-02-12T03:16:43;97112.81;;;4.62;100.00
13314;BME280;6725;48.112;11.604;2023-02-12T03:21:43;97113.59;;;4.62;100.00
13314;BME280;6725;48.112;11.604;2023-02-12T03:24:20;97126.78;;;4.64;100.00
13314;BME280;6725;48.112;11.604;2023-02-12T03:27:02;97126.78;;;4.64;100.00
13314;BME280;6725;48.112;11.604;2023-02-12T03:29:30;97131.06;;;4.65;100.00
13314;BME280;6725;48.112;11.604;2023-02-12T03:33:07;97127.59;;;4.64;100.00
13314;BME280;6725;48.112;11.604;2023-02-12T03:35:21;97126.31;;;4.62;100.00
13314;BME280;6725;48.112;11.604;2023-02-12T03:40:34;97136.34;;;4.61;100.00
13314;BME280;6725;48.112;11.604;2023-02-12T03:43:48;97122.00;;;4.61;100.00
13314;BME280;6725;48.112;11.604;2023-02-12T03:46:14;97125.53;;;4.61;100.00
13314;BME280;6725;48.112;11.604;2023-02-12T03:53:47;97128.72;;;4.55;100.00
13314;BME280;6725;48.112;11.604;2023-02-12T03:56:17;97126.47;;;4.57;100.00
13314;BME280;6725;48.112;11.604;2023-02-12T03:58:44;97135.84;;;4.59;100.00
13314;BME280;6725;48.112;11.604;2023-02-12T04:01:10;97129.34;;;4.60;100.00
13314;BME280;6725;48.112;11.604;2023-02-12T04:03:36;97135.53;;;4.61;100.00
13314;BME280;6725;48.112;11.604;2023-02-12T04:06:02;97133.63;;;4.61;100.00
13314;BME280;6725;48.112;11.604;2023-02-12T04:08:27;97135.53;;;4.61;100.00
13314;BME280;6725;48.112;11.604;2023-02-12T04:13:44;97154.47;;;4.61;100.00
13314;BME280;6725;48.112;11.604;2023-02-12T04:16:22;97150.69;;;4.62;100.00
13314;BME280;6725;48.112;11.604;2023-02-12T04:18:50;97150.50;;;4.58;100.00
13314;BME280;6725;48.112;11.604;2023-02-12T04:27:01;97156.09;;;4.62;100.00
13314;BME280;6725;48.112;11.604;2023-02-12T04:40:07;97157.53;;;4.42;100.00
13314;BME280;6725;48.112;11.604;2023-02-12T04:42:44;97170.75;;;4.44;100.00
13314;BME280;6725;48.112;11.604;2023-02-12T04:45:11;97166.59;;;4.38;100.00
13314;BME280;6725;48.112;11.604;2023-02-12T04:47:37;97176.63;;;4.37;100.00
13314;BME280;6725;48.112;11.604;2023-02-12T04:50:03;97173.59;;;4.39;100.00
13314;BME280;6725;48.112;11.604;2023-02-12T04:52:29;97182.03;;;4.37;100.00
13314;BME280;6725;48.112;11.604;2023-02-12T04:54:54;97170.44;;;4.37;100.00
13314;BME280;6725;48.112;11.604;2023-02-12T04:57:20;97173.59;;;4.39;100.00
13314;BME280;6725;48.112;11.604;2023-02-12T04:59:45;97167.41;;;4.38;100.00
13314;BME280;6725;48.112;11.604;2023-02-12T05:02:10;97165.03;;;4.37;100.00
13314;BME280;6725;48.112;11.604;2023-02-12T05:04:36;97166.13;;;4.36;100.00
13314;BME280;6725;48.112;11.604;2023-02-12T05:07:01;97168.81;;;4.36;100.00
13314;BME280;6725;48.112;11.604;2023-02-12T05:09:26;97179.63;;;4.36;100.00
13314;BME280;6725;48.112;11.604;2023-02-12T05:11:52;97175.84;;;4.37;100.00
13314;BME280;6725;48.112;11.604;2023-02-12T05:14:17;97170.44;;;4.37;100.00
13314;BME280;6725;48.112;11.604;2023-02-12T05:16:42;97175.22;;;4.40;100.00
13314;BME280;6725;48.112;11.604;2023-02-12T05:19:08;97176.78;;;4.41;100.00
13314;BME280;6725;48.112;11.604;2023-02-12T05:21:34;97186.97;;;4.44;100.00
13314;BME280;6725;48.112;11.604;2023-02-12T05:24:00;97179.94;;;4.43;100.00
13314;BME280;6725;48.112;11.604;2023-02-12T05:26:26;97181.56;;;4.44;100.00
13314;BME280;6725;48.112;11.604;2023-02-12T05:28:51;97180.75;;;4.43;100.00
13314;BME280;6725;48.112;11.604;2023-02-12T05:31:18;97185.03;;;4.44;100.00
13314;BME280;6725;48.112;11.604;2023-02-12T05:33:47;97193.16;;;4.44;100.00
13314;BME280;6725;48.112;11.604;2023-02-12T05:36:15;97185.38;;;4.43;100.00
13314;BME280;6725;48.112;11.604;2023-02-12T05:38:41;97191.72;;;4.47;100.00
13314;BME280;6725;48.112;11.604;2023-02-12T05:41:10;97182.50;;;4.48;100.00
13314;BME280;6725;48.112;11.604;2023-02-12T05:43:36;97193.66;;;4.46;100.00
13314;BME280;6725;48.112;11.604;2023-02-12T05:46:03;97193.97;;;4.45;100.00
13314;BME280;6725;48.112;11.604;2023-02-12T05:48:28;97193.16;;;4.44;100.00
13314;BME280;6725;48.112;11.604;2023-02-12T05:51:03;97196.34;;;4.46;100.00
13314;BME280;6725;48.112;11.604;2023-02-12T05:53:29;97200.19;;;4.45;100.00
13314;BME280;6725;48.112;11.604;2023-02-12T05:56:26;97192.38;;;4.44;100.00
13314;BME280;6725;48.112;11.604;2023-02-12T05:58:58;97190.78;;;4.43;100.00
13314;BME280;6725;48.112;11.604;2023-02-12T06:01:29;97192.38;;;4.44;100.00
13314;BME280;6725;48.112;11.604;2023-02-12T06:03:55;97191.25;;;4.45;100.00
13314;BME280;6725;48.112;11.604;2023-02-12T06:06:24;97193.34;;;4.48;100.00
13314;BME280;6725;48.112;11.604;2023-02-12T06:08:50;97196.50;;;4.50;100.00
13314;BME280;6725;48.112;11.604;2023-02-12T06:11:16;97194.28;;;4.52;100.00
13314;BME280;6725;48.112;11.604;2023-02-12T06:13:42;97194.28;;;4.52;100.00
13314;BME280;6725;48.112;11.604;2023-02-12T06:16:25;97204.47;;;4.55;100.00
13314;BME280;6725;48.112;11.604;2023-02-12T06:18:52;97201.28;;;4.53;100.00
13314;BME280;6725;48.112;11.604;2023-02-12T06:21:19;97210.50;;;4.52;100.00
13314;BME280;6725;48.112;11.604;2023-02-12T06:23:46;97210.50;;;4.52;100.00
13314;BME280;6725;48.112;11.604;2023-02-12T06:26:11;97207.16;;;4.46;100.00
13314;BME280;6725;48.112;11.604;2023-02-12T06:28:37;97205.25;;;4.47;100.00
13314;BME280;6725;48.112;11.604;2023-02-12T06:31:02;97206.03;;;4.47;100.00
13314;BME280;6725;48.112;11.604;2023-02-12T06:33:28;97213.84;;;4.49;100.00
13314;BME280;6725;48.112;11.604;2023-02-12T06:35:54;97217.34;;;4.49;100.00
13314;BME280;6725;48.112;11.604;2023-02-12T06:38:19;97218.94;;;4.42;100.00
13314;BME280;6725;48.112;11.604;2023-02-12T06:40:45;97225.47;;;4.41;100.00
13314;BME280;6725;48.112;11.604;2023-02-12T06:43:10;97226.72;;;4.43;100.00
13314;BME280;6725;48.112;11.604;2023-02-12T06:45:36;97228.00;;;4.46;100.00
13314;BME280;6725;48.112;11.604;2023-02-12T06:48:01;97229.59;;;4.47;100.00
13314;BME280;6725;48.112;11.604;2023-02-12T06:50:28;97232.78;;;4.49;100.00
13314;BME280;6725;48.112;11.604;2023-02-12T06:52:54;97228.31;;;4.53;100.00
13314;BME280;6725;48.112;11.604;2023-02-12T06:55:19;97226.88;;;4.55;100.00
13314;BME280;6725;48.112;11.604;2023-02-12T06:57:45;97227.69;;;4.56;100.00
13314;BME280;6725;48.112;11.604;2023-02-12T07:00:10;97228.16;;;4.58;100.00
13314;BME280;6725;48.112;11.604;2023-02-12T07:02:36;97229.13;;;4.62;100.00
13314;BME280;6725;48.112;11.604;2023-02-12T07:05:02;97232.78;;;4.66;100.00
13314;BME280;6725;48.112;11.604;2023-02-12T07:07:27;97229.09;;;4.70;100.00
13314;BME280;6725;48.112;11.604;2023-02-12T07:09:52;97230.84;;;4.75;100.00
13314;BME280;6725;48.112;11.604;2023-02-12T07:12:18;97227.66;;;4.81;100.00
13314;BME280;6725;48.112;11.604;2023-02-12T07:14:43;97230.66;;;4.88;100.00
13314;BME280;6725;48.112;11.604;2023-02-12T07:17:09;97226.03;;;4.97;100.00
13314;BME280;6725;48.112;11.604;2023-02-12T07:19:35;97235.88;;;5.02;100.00
13314;BME280;6725;48.112;11.604;2023-02-12T07:22:01;97226.97;;;5.10;100.00
13314;BME280;6725;48.112;11.604;2023-02-12T07:24:26;97232.38;;;5.18;100.00
13314;BME280;6725;48.112;11.604;2023-02-12T07:26:52;97242.69;;;5.25;100.00
13314;BME280;6725;48.112;11.604;2023-02-12T07:29:17;97224.66;;;5.29;100.00
13314;BME280;6725;48.112;11.604;2023-02-12T07:31:43;97223.88;;;5.28;100.00
13314;BME280;6725;48.112;11.604;2023-02-12T07:34:09;97228.81;;;5.26;100.00
13314;BME280;6725;48.112;11.604;2023-02-12T07:36:35;97226.41;;;5.33;100.00
13314;BME280;6725;48.112;11.604;2023-02-12T07:39:00;97214.78;;;5.33;100.00
13314;BME280;6725;48.112;11.604;2023-02-12T07:41:28;97219.38;;;5.41;100.00
13314;BME280;6725;48.112;11.604;2023-02-12T07:43:56;97218.69;;;5.52;100.00
13314;BME280;6725;48.112;11.604;2023-02-12T07:46:25;97224.72;;;5.58;100.00
13314;BME280;6725;48.112;11.604;2023-02-12T07:48:54;97219.09;;;5.63;100.00
13314;BME280;6725;48.112;11.604;2023-02-12T07:51:20;97218.47;;;5.66;100.00
13314;BME280;6725;48.112;11.604;2023-02-12T07:53:46;97214.44;;;5.72;100.00
13314;BME280;6725;48.112;11.604;2023-02-12T07:56:24;97206.31;;;5.72;100.00
13314;BME280;6725;48.112;11.604;2023-02-12T07:58:51;97203.28;;;5.73;100.00
13314;BME280;6725;48.112;11.604;2023-02-12T08:03:45;97219.19;;;5.83;100.00
13314;BME280;6725;48.112;11.604;2023-02-12T08:06:13;97209.59;;;5.86;100.00
13314;BME280;6725;48.112;11.604;2023-02-12T08:08:39;97214.56;;;5.84;100.00
13314;BME280;6725;48.112;11.604;2023-02-12T08:11:06;97216.94;;;5.85;100.00
13314;BME280;6725;48.112;11.604;2023-02-12T08:13:33;97211.66;;;5.89;100.00
13314;BME280;6725;48.112;11.604;2023-02-12T08:15:59;97207.84;;;5.90;100.00
13314;BME280;6725;48.112;11.604;2023-02-12T08:18:25;97207.50;;;5.91;100.00
13314;BME280;6725;48.112;11.604;2023-02-12T08:20:50;97217.19;;;6.01;100.00
13314;BME280;6725;48.112;11.604;2023-02-12T08:23:16;97215.66;;;6.12;100.00
13314;BME280;6725;48.112;11.604;2023-02-12T08:25:41;97217.09;;;6.09;100.00
13314;BME280;6725;48.112;11.604;2023-02-12T08:28:06;97218.31;;;6.20;100.00
13314;BME280;6725;48.112;11.604;2023-02-12T08:30:32;97212.56;;;6.22;100.00
13314;BME280;6725;48.112;11.604;2023-02-12T08:32:57;97216.06;;;6.22;100.00
13314;BME280;6725;48.112;11.604;2023-02-12T08:35:22;97211.91;;;6.25;100.00
13314;BME280;6725;48.112;11.604;2023-02-12T08:37:48;97209.19;;;6.25;100.00
13314;BME280;6725;48.112;11.604;2023-02-12T08:40:13;97202.19;;;6.24;100.00
13314;BME280;6725;48.112;11.604;2023-02-12T08:42:38;97199.41;;;6.32;100.00
13314;BME280;6725;48.112;11.604;2023-02-12T08:45:04;97202.72;;;6.38;100.00
13314;BME280;6725;48.112;11.604;2023-02-12T08:47:29;97202.22;;;6.36;100.00
13314;BME280;6725;48.112;11.604;2023-02-12T08:49:55;97205.22;;;6.43;100.00
13314;BME280;6725;48.112;11.604;2023-02-12T08:52:20;97200.31;;;6.57;100.00
13314;BME280;6725;48.112;11.604;2023-02-12T08:54:45;97203.69;;;6.54;100.00
13314;BME280;6725;48.112;11.604;2023-02-12T08:57:11;97198.81;;;6.80;100.00
13314;BME280;6725;48.112;11.604;2023-02-12T08:59:36;97202.59;;;7.00;100.00
13314;BME280;6725;48.112;11.604;2023-02-12T09:02:01;97204.78;;;7.06;100.00
13314;BME280;6725;48.112;11.604;2023-02-12T09:04:32;97202.78;;;7.15;100.00
13314;BME280;6725;48.112;11.604;2023-02-12T09:07:00;97197.13;;;7.32;100.00
13314;BME280;6725;48.112;11.604;2023-02-12T09:09:25;97198.06;;;7.48;100.00
13314;BME280;6725;48.112;11.604;2023-02-12T09:11:51;97205.31;;;7.56;100.00
13314;BME280;6725;48.112;11.604;2023-02-12T09:14:17;97198.97;;;7.76;100.00
13314;BME280;6725;48.112;11.604;2023-02-12T09:16:47;97200.78;;;7.96;100.00
13314;BME280;6725;48.112;11.604;2023-02-12T09:19:14;97209.03;;;8.24;100.00
13314;BME280;6725;48.112;11.604;2023-02-12T09:21:39;97210.50;;;8.33;100.00
13314;BME280;6725;48.112;11.604;2023-02-12T09:24:05;97212.75;;;8.43;100.00
13314;BME280;6725;48.112;11.604;2023-02-12T09:26:31;97214.31;;;8.20;100.00
13314;BME280;6725;48.112;11.604;2023-02-12T09:28:56;97222.50;;;8.08;100.00
13314;BME280;6725;48.112;11.604;2023-02-12T09:31:24;97216.19;;;8.28;100.00
13314;BME280;6725;48.112;11.604;2023-02-12T09:33:54;97220.72;;;8.24;100.00
13314;BME280;6725;48.112;11.604;2023-02-12T09:36:22;97210.56;;;8.49;100.00
13314;BME280;6725;48.112;11.604;2023-02-12T09:38:47;97219.50;;;8.61;100.00
13314;BME280;6725;48.112;11.604;2023-02-12T09:44:24;97217.75;;;8.29;100.00
13314;BME280;6725;48.112;11.604;2023-02-12T09:47:38;97224.31;;;8.40;100.00
13314;BME280;6725;48.112;11.604;2023-02-12T09:52:43;97216.06;;;8.25;100.00
13314;BME280;6725;48.112;11.604;2023-02-12T09:55:14;97222.75;;;8.27;100.00
13314;BME280;6725;48.112;11.604;2023-02-12T09:57:41;97220.22;;;8.46;100.00
13314;BME280;6725;48.112;11.604;2023-02-12T10:00:16;97222.97;;;8.74;100.00
13314;BME280;6725;48.112;11.604;2023-02-12T10:02:42;97217.63;;;8.77;100.00
13314;BME280;6725;48.112;11.604;2023-02-12T10:05:19;97222.16;;;9.01;100.00
13314;BME280;6725;48.112;11.604;2023-02-12T10:08:51;97221.28;;;8.97;100.00
13314;BME280;6725;48.112;11.604;2023-02-12T10:14:18;97217.13;;;8.87;100.00
13314;BME280;6725;48.112;11.604;2023-02-12T10:22:25;97215.56;;;8.74;100.00
13314;BME280;6725;48.112;11.604;2023-02-12T10:27:59;97217.81;;;9.12;100.00
13314;BME280;6725;48.112;11.604;2023-02-12T10:30:39;97219.72;;;8.96;100.00
13314;BME280;6725;48.112;11.604;2023-02-12T10:33:14;97222.88;;;9.56;100.00
13314;BME280;6725;48.112;11.604;2023-02-12T10:35:44;97223.72;;;9.29;100.00
13314;BME280;6725;48.112;11.604;2023-02-12T10:38:21;97223.91;;;9.36;100.00
13314;BME280;6725;48.112;11.604;2023-02-12T10:40:48;97212.66;;;10.16;100.00
13314;BME280;6725;48.112;11.604;2023-02-12T10:43:14;97209.50;;;11.92;100.00
13314;BME280;6725;48.112;11.604;2023-02-12T10:45:42;97209.50;;;11.92;100.00
13314;BME280;6725;48.112;11.604;2023-02-12T10:50:56;97216.75;;;12.29;100.00
13314;BME280;6725;48.112;11.604;2023-02-12T10:58:38;97216.59;;;10.91;100.00
13314;BME280;6725;48.112;11.604;2023-02-12T11:01:05;97223.56;;;11.68;100.00
13314;BME280;6725;48.112;11.604;2023-02-12T11:03:38;97221.06;;;10.80;100.00
13314;BME280;6725;48.112;11.604;2023-02-12T11:08:42;97211.41;;;11.05;100.00
13314;BME280;6725;48.112;11.604;2023-02-12T11:11:11;97206.69;;;11.88;100.00
13314;BME280;6725;48.112;11.604;2023-02-12T11:13:40;97209.28;;;10.76;100.00
13314;BME280;6725;48.112;11.604;2023-02-12T11:16:08;97203.69;;;11.52;100.00
13314;BME280;6725;48.112;11.604;2023-02-12T11:18:35;97206.53;;;11.36;100.00
13314;BME280;6725;48.112;11.604;2023-02-12T11:21:10;97205.78;;;11.36;100.00
13314;BME280;6725;48.112;11.604;2023-02-12T11:23:39;97205.91;;;11.01;100.00
13314;BME280;6725;48.112;11.604;2023-02-12T11:28:58;97200.41;;;10.09;100.00
13314;BME280;6725;48.112;11.604;2023-02-12T11:31:27;97209.31;;;9.75;100.00
13314;BME280;6725;48.112;11.604;2023-02-12T11:34:19;97199.13;;;9.41;100.00
13314;BME280;6725;48.112;11.604;2023-02-12T11:36:50;97184.94;;;9.51;100.00
13314;BME280;6725;48.112;11.604;2023-02-12T11:39:20;97199.81;;;9.38;100.00
13314;BME280;6725;48.112;11.604;2023-02-12T11:41:51;97185.28;;;9.50;100.00
13314;BME280;6725;48.112;11.604;2023-02-12T11:44:19;97189.59;;;9.66;100.00
13314;BME280;6725;48.112;11.604;2023-02-12T11:47:10;97194.50;;;9.14;100.00
13314;BME280;6725;48.112;11.604;2023-02-12T11:50:28;97195.97;;;8.69;100.00
13314;BME280;6725;48.112;11.604;2023-02-12T11:52:31;97181.88;;;8.79;100.00
13314;BME280;6725;48.112;11.604;2023-02-12T11:55:00;97191.25;;;8.54;100.00
13314;BME280;6725;48.112;11.604;2023-02-12T12:00:15;97187.69;;;8.38;100.00
13314;BME280;6725;48.112;11.604;2023-02-12T12:03:20;97183.44;;;8.52;100.00
13314;BME280;6725;48.112;11.604;2023-02-12T12:05:53;97176.81;;;8.14;100.00
13314;BME280;6725;48.112;11.604;2023-02-12T12:08:39;97177.38;;;8.19;100.00
13314;BME280;6725;48.112;11.604;2023-02-12T12:11:13;97180.31;;;8.38;100.00
13314;BME280;6725;48.112;11.604;2023-02-12T12:14:00;97171.66;;;8.48;100.00
13314;BME280;6725;48.112;11.604;2023-02-12T12:16:33;97165.25;;;8.68;100.00
13314;BME280;6725;48.112;11.604;2023-02-12T12:19:24;97165.31;;;8.44;100.00
13314;BME280;6725;48.112;11.604;2023-02-12T12:22:33;97157.19;;;8.32;100.00
13314;BME280;6725;48.112;11.604;2023-02-12T12:27:48;97157.53;;;8.31;100.00
13314;BME280;6725;48.112;11.604;2023-02-12T12:33:52;97158.59;;;8.54;100.00
13314;BME280;6725;48.112;11.604;2023-02-12T12:44:48;97154.91;;;8.89;100.00
13314;BME280;6725;48.112;11.604;2023-02-12T12:59:11;97154.97;;;8.77;100.00
13314;BME280;6725;48.112;11.604;2023-02-12T13:17:45;97138.00;;;9.42;100.00
13314;BME280;6725;48.112;11.604;2023-02-12T13:22:52;97138.59;;;9.20;100.00
13314;BME280;6725;48.112;11.604;2023-02-12T13:28:01;97138.72;;;8.81;100.00
13314;BME280;6725;48.112;11.604;2023-02-12T13:30:49;97126.44;;;8.87;100.00
13314;BME280;6725;48.112;11.604;2023-02-12T13:33:21;97135.63;;;8.67;100.00
13314;BME280;6725;48.112;11.604;2023-02-12T13:35:52;97134.19;;;8.85;100.00
13314;BME280;6725;48.112;11.604;2023-02-12T13:38:32;97134.97;;;8.58;100.00
13314;BME280;6725;48.112;11.604;2023-02-12T13:41:03;97134.03;;;8.38;100.00
13314;BME280;6725;48.112;11.604;2023-02-12T13:56:49;97131.91;;;8.59;100.00
13314;BME280;6725;48.112;11.604;2023-02-12T13:59:50;97117.50;;;8.31;100.00
13314;BME280;6725;48.112;11.604;2023-02-12T14:02:41;97120.72;;;8.21;100.00
13314;BME280;6725;48.112;11.604;2023-02-12T14:05:18;97121.34;;;8.30;100.00
13314;BME280;6725;48.112;11.604;2023-02-12T14:07:54;97112.75;;;8.28;100.00
13314;BME280;6725;48.112;11.604;2023-02-12T14:12:48;97118.22;;;8.28;100.00
13314;BME280;6725;48.112;11.604;2023-02-12T14:15:27;97119.09;;;8.32;100.00
13314;BME280;6725;48.112;11.604;2023-02-12T14:18:20;97111.97;;;8.28;100.00
13314;BME280;6725;48.112;11.604;2023-02-12T14:20:46;97120.72;;;8.09;100.00
13314;BME280;6725;48.112;11.604;2023-02-12T14:23:26;97114.16;;;8.10;100.00
13314;BME280;6725;48.112;11.604;2023-02-12T14:29:14;97120.31;;;7.95;100.00
13314;BME280;6725;48.112;11.604;2023-02-12T14:33:42;97117.25;;;7.97;100.00
13314;BME280;6725;48.112;11.604;2023-02-12T14:39:25;97108.88;;;7.90;100.00
13314;BME280;6725;48.112;11.604;2023-02-12T14:47:01;97113.88;;;7.88;100.00
13314;BME280;6725;48.112;11.604;2023-02-12T14:49:33;97117.38;;;7.76;100.00
13314;BME280;6725;48.112;11.604;2023-02-12T14:52:22;97099.47;;;7.87;100.00
13314;BME280;6725;48.112;11.604;2023-02-12T14:57:25;97104.50;;;7.61;100.00
13314;BME280;6725;48.112;11.604;2023-02-12T14:59:54;97099.72;;;7.58;100.00
13314;BME280;6725;48.112;11.604;2023-02-12T15:02:33;97117.66;;;7.59;100.00
13314;BME280;6725;48.112;11.604;2023-02-12T15:05:15;97109.50;;;7.59;100.00
13314;BME280;6725;48.112;11.604;2023-02-12T15:07:45;97112.22;;;7.59;100.00
13314;BME280;6725;48.112;11.604;2023-02-12T15:10:21;97120.34;;;7.47;100.00
13314;BME280;6725;48.112;11.604;2023-02-12T15:13:14;97117.19;;;7.45;100.00
13314;BME280;6725;48.112;11.604;2023-02-12T15:16:08;97112.56;;;7.46;100.00
13314;BME280;6725;48.112;11.604;2023-02-12T15:19:03;97104.97;;;7.51;100.00
13314;BME280;6725;48.112;11.604;2023-02-12T15:21:32;97103.28;;;7.47;100.00
13314;BME280;6725;48.112;11.604;2023-02-12T15:26:28;97104.75;;;7.44;100.00
13314;BME280;6725;48.112;11.604;2023-02-12T15:28:54;97106.00;;;7.35;100.00
13314;BME280;6725;48.112;11.604;2023-02-12T15:31:25;97093.66;;;7.37;100.00
13314;BME280;6725;48.112;11.604;2023-02-12T15:33:53;97096.03;;;7.39;100.00
13314;BME280;6725;48.112;11.604;2023-02-12T15:36:22;97103.25;;;7.23;100.00
13314;BME280;6725;48.112;11.604;2023-02-12T15:38:53;97107.03;;;7.18;100.00
13314;BME280;6725;48.112;11.604;2023-02-12T15:41:27;97109.75;;;7.18;100.00
13314;BME280;6725;48.112;11.604;2023-02-12T15:43:53;97100.66;;;7.14;100.00
13314;BME280;6725;48.112;11.604;2023-02-12T15:46:19;97100.88;;;6.97;100.00
13314;BME280;6725;48.112;11.604;2023-02-12T15:48:45;97108.56;;;6.95;100.00
13314;BME280;6725;48.112;11.604;2023-02-12T15:51:29;97095.88;;;6.87;100.00
13314;BME280;6725;48.112;11.604;2023-02-12T15:53:59;97096.56;;;6.84;100.00